sensor_id;sensor_type;location;lat;lon;timestamp;P1;durP1;ratioP1;P2;durP2;ratioP2
66429;SDS011;53242;51.694;10.006;2023-03-01T00:01:56;9.30;;;3.38;;
66429;SDS011;53242;51.694;10.006;2023-03-01T00:04:18;7.70;;;2.83;;
66429;SDS011;53242;51.694;10.006;2023-03-01T00:06:41;7.55;;;3.22;;
66429;SDS011;53242;51.694;10.006;2023-03-01T00:09:07;7.32;;;2.90;;
66429;SDS011;53242;51.694;10.006;2023-03-01T00:11:31;8.85;;;3.00;;
66429;SDS011;53242;51.694;10.006;2023-03-01T00:13:55;8.63;;;2.97;;
66429;SDS011;53242;51.694;10.006;2023-03-01T00:16:20;9.70;;;3.33;;
66429;SDS011;53242;51.694;10.006;2023-03-01T00:18:44;10.85;;;4.28;;
66429;SDS011;53242;51.694;10.006;2023-03-01T00:21:06;13.02;;;4.10;;
66429;SDS011;53242;51.694;10.006;2023-03-01T00:23:29;11.00;;;3.88;;
66429;SDS011;53242;51.694;10.006;2023-03-01T00:25:51;14.38;;;4.88;;
66429;SDS011;53242;51.694;10.006;2023-03-01T00:28:14;11.07;;;3.83;;
66429;SDS011;53242;51.694;10.006;2023-03-01T00:30:37;11.55;;;3.78;;
66429;SDS011;53242;51.694;10.006;2023-03-01T00:32:59;9.82;;;3.75;;
66429;SDS011;53242;51.694;10.006;2023-03-01T00:35:21;8.75;;;3.03;;
66429;SDS011;53242;51.694;10.006;2023-03-01T00:37:44;9.10;;;3.50;;
66429;SDS011;53242;51.694;10.006;2023-03-01T00:40:08;9.65;;;3.72;;
66429;SDS011;53242;51.694;10.006;2023-03-01T00:42:32;9.48;;;3.65;;
66429;SDS011;53242;51.694;10.006;2023-03-01T00:44:54;10.48;;;3.55;;
66429;SDS011;53242;51.694;10.006;2023-03-01T00:47:17;8.00;;;2.97;;
66429;SDS011;53242;51.694;10.006;2023-03-01T00:49:39;9.90;;;3.35;;
66429;SDS011;53242;51.694;10.006;2023-03-01T00:52:02;11.88;;;3.72;;
66429;SDS011;53242;51.694;10.006;2023-03-01T00:54:24;10.23;;;3.47;;
66429;SDS011;53242;51.694;10.006;2023-03-01T00:56:46;9.68;;;3.50;;
66429;SDS011;53242;51.694;10.006;2023-03-01T00:59:09;9.32;;;3.65;;
66429;SDS011;53242;51.694;10.006;2023-03-01T01:01:31;8.57;;;3.42;;
66429;SDS011;53242;51.694;10.006;2023-03-01T01:03:55;8.50;;;3.55;;
66429;SDS011;53242;51.694;10.006;2023-03-01T01:06:23;10.00;;;3.67;;
66429;SDS011;53242;51.694;10.006;2023-03-01T01:08:48;9.55;;;3.30;;
66429;SDS011;53242;51.694;10.006;2023-03-01T01:11:11;11.32;;;3.60;;
66429;SDS011;53242;51.694;10.006;2023-03-01T01:13:34;9.93;;;3.70;;
66429;SDS011;53242;51.694;10.006;2023-03-01T01:16:00;11.65;;;3.30;;
66429;SDS011;53242;51.694;10.006;2023-03-01T01:18:23;11.90;;;3.78;;
66429;SDS011;53242;51.694;10.006;2023-03-01T01:20:45;8.20;;;3.75;;
66429;SDS011;53242;51.694;10.006;2023-03-01T01:23:08;11.05;;;3.65;;
66429;SDS011;53242;51.694;10.006;2023-03-01T01:25:30;11.23;;;3.50;;
66429;SDS011;53242;51.694;10.006;2023-03-01T01:27:56;11.27;;;3.78;;
66429;SDS011;53242;51.694;10.006;2023-03-01T01:30:19;10.38;;;3.80;;
66429;SDS011;53242;51.694;10.006;2023-03-01T01:32:41;9.35;;;3.42;;
66429;SDS011;53242;51.694;10.006;2023-03-01T01:35:03;11.18;;;3.60;;
66429;SDS011;53242;51.694;10.006;2023-03-01T01:37:26;11.82;;;3.45;;
66429;SDS011;53242;51.694;10.006;2023-03-01T01:39:53;9.10;;;3.30;;
66429;SDS011;53242;51.694;10.006;2023-03-01T01:42:16;9.45;;;2.90;;
66429;SDS011;53242;51.694;10.006;2023-03-01T01:44:39;9.73;;;3.00;;
66429;SDS011;53242;51.694;10.006;2023-03-01T01:47:18;10.73;;;3.50;;
66429;SDS011;53242;51.694;10.006;2023-03-01T01:49:45;10.30;;;3.15;;
66429;SDS011;53242;51.694;10.006;2023-03-01T01:52:12;10.82;;;3.42;;
66429;SDS011;53242;51.694;10.006;2023-03-01T01:57:37;7.55;;;2.58;;
66429;SDS011;53242;51.694;10.006;2023-03-01T02:00:08;7.35;;;3.08;;
66429;SDS011;53242;51.694;10.006;2023-03-01T02:02:50;8.80;;;3.17;;
66429;SDS011;53242;51.694;10.006;2023-03-01T02:05:19;10.10;;;2.88;;
66429;SDS011;53242;51.694;10.006;2023-03-01T02:07:47;8.55;;;2.97;;
66429;SDS011;53242;51.694;10.006;2023-03-01T02:10:10;7.80;;;3.05;;
66429;SDS011;53242;51.694;10.006;2023-03-01T02:12:34;6.53;;;2.78;;
66429;SDS011;53242;51.694;10.006;2023-03-01T02:14:57;8.30;;;3.15;;
66429;SDS011;53242;51.694;10.006;2023-03-01T02:17:20;8.93;;;3.17;;
66429;SDS011;53242;51.694;10.006;2023-03-01T02:20:00;8.82;;;3.05;;
66429;SDS011;53242;51.694;10.006;2023-03-01T02:22:31;9.27;;;3.17;;
66429;SDS011;53242;51.694;10.006;2023-03-01T02:24:57;8.77;;;3.17;;
66429;SDS011;53242;51.694;10.006;2023-03-01T02:27:43;10.25;;;3.35;;
66429;SDS011;53242;51.694;10.006;2023-03-01T02:30:07;9.95;;;3.28;;
66429;SDS011;53242;51.694;10.006;2023-03-01T02:32:30;13.13;;;4.47;;
66429;SDS011;53242;51.694;10.006;2023-03-01T02:34:53;10.77;;;3.20;;
66429;SDS011;53242;51.694;10.006;2023-03-01T02:37:17;11.27;;;4.13;;
66429;SDS011;53242;51.694;10.006;2023-03-01T02:39:47;14.38;;;4.85;;
66429;SDS011;53242;51.694;10.006;2023-03-01T02:42:16;14.50;;;4.80;;
66429;SDS011;53242;51.694;10.006;2023-03-01T02:44:44;12.75;;;4.28;;
66429;SDS011;53242;51.694;10.006;2023-03-01T02:47:07;17.38;;;4.93;;
66429;SDS011;53242;51.694;10.006;2023-03-01T02:49:30;13.80;;;4.47;;
66429;SDS011;53242;51.694;10.006;2023-03-01T02:54:40;12.27;;;3.53;;
66429;SDS011;53242;51.694;10.006;2023-03-01T02:57:10;10.65;;;4.10;;
66429;SDS011;53242;51.694;10.006;2023-03-01T02:59:33;12.15;;;4.97;;
66429;SDS011;53242;51.694;10.006;2023-03-01T03:02:02;13.02;;;4.18;;
66429;SDS011;53242;51.694;10.006;2023-03-01T03:04:24;13.10;;;4.38;;
66429;SDS011;53242;51.694;10.006;2023-03-01T03:06:48;10.25;;;3.53;;
66429;SDS011;53242;51.694;10.006;2023-03-01T03:09:13;13.75;;;4.35;;
66429;SDS011;53242;51.694;10.006;2023-03-01T03:11:36;12.07;;;4.38;;
66429;SDS011;53242;51.694;10.006;2023-03-01T03:13:59;12.43;;;4.55;;
66429;SDS011;53242;51.694;10.006;2023-03-01T03:16:21;10.88;;;4.05;;
66429;SDS011;53242;51.694;10.006;2023-03-01T03:21:09;12.00;;;4.07;;
66429;SDS011;53242;51.694;10.006;2023-03-01T03:23:33;11.73;;;4.20;;
66429;SDS011;53242;51.694;10.006;2023-03-01T03:25:56;13.38;;;4.53;;
66429;SDS011;53242;51.694;10.006;2023-03-01T03:28:18;12.65;;;5.00;;
66429;SDS011;53242;51.694;10.006;2023-03-01T03:30:41;11.10;;;4.38;;
66429;SDS011;53242;51.694;10.006;2023-03-01T03:33:05;12.95;;;4.75;;
66429;SDS011;53242;51.694;10.006;2023-03-01T03:35:30;12.43;;;4.65;;
66429;SDS011;53242;51.694;10.006;2023-03-01T03:37:57;19.35;;;5.18;;
66429;SDS011;53242;51.694;10.006;2023-03-01T03:40:24;14.40;;;4.32;;
66429;SDS011;53242;51.694;10.006;2023-03-01T03:42:46;11.70;;;4.28;;
66429;SDS011;53242;51.694;10.006;2023-03-01T03:45:10;12.05;;;4.40;;
66429;SDS011;53242;51.694;10.006;2023-03-01T03:47:32;13.02;;;4.30;;
66429;SDS011;53242;51.694;10.006;2023-03-01T03:49:54;14.43;;;5.10;;
66429;SDS011;53242;51.694;10.006;2023-03-01T03:52:17;12.77;;;4.75;;
66429;SDS011;53242;51.694;10.006;2023-03-01T03:54:40;11.63;;;4.45;;
66429;SDS011;53242;51.694;10.006;2023-03-01T03:57:02;13.63;;;4.97;;
66429;SDS011;53242;51.694;10.006;2023-03-01T03:59:25;15.45;;;5.28;;
66429;SDS011;53242;51.694;10.006;2023-03-01T04:01:48;14.75;;;5.35;;
66429;SDS011;53242;51.694;10.006;2023-03-01T04:04:10;16.17;;;5.57;;
66429;SDS011;53242;51.694;10.006;2023-03-01T04:06:32;14.65;;;5.38;;
66429;SDS011;53242;51.694;10.006;2023-03-01T04:08:55;12.55;;;4.50;;
66429;SDS011;53242;51.694;10.006;2023-03-01T04:11:22;18.02;;;5.13;;
66429;SDS011;53242;51.694;10.006;2023-03-01T04:13:51;15.23;;;5.22;;
66429;SDS011;53242;51.694;10.006;2023-03-01T04:16:15;19.08;;;6.20;;
66429;SDS011;53242;51.694;10.006;2023-03-01T04:18:37;15.13;;;5.80;;
66429;SDS011;53242;51.694;10.006;2023-03-01T04:21:00;15.10;;;5.30;;
66429;SDS011;53242;51.694;10.006;2023-03-01T04:23:22;15.35;;;5.78;;
66429;SDS011;53242;51.694;10.006;2023-03-01T04:25:46;15.70;;;5.53;;
66429;SDS011;53242;51.694;10.006;2023-03-01T04:28:16;13.80;;;4.82;;
66429;SDS011;53242;51.694;10.006;2023-03-01T04:30:39;10.45;;;3.60;;
66429;SDS011;53242;51.694;10.006;2023-03-01T04:33:05;11.00;;;3.80;;
66429;SDS011;53242;51.694;10.006;2023-03-01T04:35:28;11.60;;;4.60;;
66429;SDS011;53242;51.694;10.006;2023-03-01T04:37:51;13.05;;;3.95;;
66429;SDS011;53242;51.694;10.006;2023-03-01T04:40:14;10.32;;;3.55;;
66429;SDS011;53242;51.694;10.006;2023-03-01T04:42:38;12.57;;;3.70;;
66429;SDS011;53242;51.694;10.006;2023-03-01T04:45:01;12.18;;;4.15;;
66429;SDS011;53242;51.694;10.006;2023-03-01T04:47:23;12.52;;;4.22;;
66429;SDS011;53242;51.694;10.006;2023-03-01T04:49:45;10.65;;;2.97;;
66429;SDS011;53242;51.694;10.006;2023-03-01T04:52:08;8.60;;;2.97;;
66429;SDS011;53242;51.694;10.006;2023-03-01T04:54:31;9.25;;;3.05;;
66429;SDS011;53242;51.694;10.006;2023-03-01T04:56:54;13.60;;;4.32;;
66429;SDS011;53242;51.694;10.006;2023-03-01T04:59:17;21.88;;;7.20;;
66429;SDS011;53242;51.694;10.006;2023-03-01T05:01:39;74.32;;;23.33;;
66429;SDS011;53242;51.694;10.006;2023-03-01T05:04:04;43.92;;;14.80;;
66429;SDS011;53242;51.694;10.006;2023-03-01T05:06:27;19.33;;;6.80;;
66429;SDS011;53242;51.694;10.006;2023-03-01T05:08:49;22.98;;;7.13;;
66429;SDS011;53242;51.694;10.006;2023-03-01T05:11:12;18.52;;;6.88;;
66429;SDS011;53242;51.694;10.006;2023-03-01T05:13:35;17.08;;;5.50;;
66429;SDS011;53242;51.694;10.006;2023-03-01T05:16:00;16.15;;;5.60;;
66429;SDS011;53242;51.694;10.006;2023-03-01T05:18:24;11.55;;;4.43;;
66429;SDS011;53242;51.694;10.006;2023-03-01T05:20:50;11.27;;;4.35;;
66429;SDS011;53242;51.694;10.006;2023-03-01T05:23:13;13.48;;;4.63;;
66429;SDS011;53242;51.694;10.006;2023-03-01T05:25:36;13.40;;;4.43;;
66429;SDS011;53242;51.694;10.006;2023-03-01T05:28:02;11.52;;;4.28;;
66429;SDS011;53242;51.694;10.006;2023-03-01T05:30:27;12.55;;;4.18;;
66429;SDS011;53242;51.694;10.006;2023-03-01T05:32:50;14.45;;;4.50;;
66429;SDS011;53242;51.694;10.006;2023-03-01T05:35:17;13.30;;;4.15;;
66429;SDS011;53242;51.694;10.006;2023-03-01T05:37:43;17.08;;;4.88;;
66429;SDS011;53242;51.694;10.006;2023-03-01T05:40:07;16.35;;;4.88;;
66429;SDS011;53242;51.694;10.006;2023-03-01T05:42:37;12.32;;;4.53;;
66429;SDS011;53242;51.694;10.006;2023-03-01T05:44:59;10.48;;;3.97;;
66429;SDS011;53242;51.694;10.006;2023-03-01T05:47:22;12.55;;;4.38;;
66429;SDS011;53242;51.694;10.006;2023-03-01T05:49:44;14.43;;;4.60;;
66429;SDS011;53242;51.694;10.006;2023-03-01T05:52:07;17.35;;;5.72;;
66429;SDS011;53242;51.694;10.006;2023-03-01T05:54:29;12.98;;;4.53;;
66429;SDS011;53242;51.694;10.006;2023-03-01T05:56:52;13.73;;;5.07;;
66429;SDS011;53242;51.694;10.006;2023-03-01T05:59:14;13.23;;;4.80;;
66429;SDS011;53242;51.694;10.006;2023-03-01T06:01:38;17.90;;;6.20;;
66429;SDS011;53242;51.694;10.006;2023-03-01T06:04:00;14.85;;;5.38;;
66429;SDS011;53242;51.694;10.006;2023-03-01T06:06:24;14.45;;;5.10;;
66429;SDS011;53242;51.694;10.006;2023-03-01T06:08:47;10.95;;;4.28;;
66429;SDS011;53242;51.694;10.006;2023-03-01T06:11:09;13.57;;;4.60;;
66429;SDS011;53242;51.694;10.006;2023-03-01T06:13:32;18.65;;;5.10;;
66429;SDS011;53242;51.694;10.006;2023-03-01T06:15:54;11.73;;;4.28;;
66429;SDS011;53242;51.694;10.006;2023-03-01T06:18:17;11.68;;;3.97;;
66429;SDS011;53242;51.694;10.006;2023-03-01T06:20:39;15.25;;;5.70;;
66429;SDS011;53242;51.694;10.006;2023-03-01T06:23:01;24.42;;;11.27;;
66429;SDS011;53242;51.694;10.006;2023-03-01T06:25:25;12.48;;;4.47;;
66429;SDS011;53242;51.694;10.006;2023-03-01T06:27:48;16.13;;;5.13;;
66429;SDS011;53242;51.694;10.006;2023-03-01T06:30:12;13.68;;;5.05;;
66429;SDS011;53242;51.694;10.006;2023-03-01T06:32:37;15.02;;;4.80;;
66429;SDS011;53242;51.694;10.006;2023-03-01T06:34:59;13.40;;;4.75;;
66429;SDS011;53242;51.694;10.006;2023-03-01T06:37:22;14.40;;;5.50;;
66429;SDS011;53242;51.694;10.006;2023-03-01T06:39:44;14.27;;;5.20;;
66429;SDS011;53242;51.694;10.006;2023-03-01T06:42:07;14.05;;;5.30;;
66429;SDS011;53242;51.694;10.006;2023-03-01T06:44:31;13.45;;;4.10;;
66429;SDS011;53242;51.694;10.006;2023-03-01T06:46:54;12.18;;;4.35;;
66429;SDS011;53242;51.694;10.006;2023-03-01T06:49:17;13.38;;;4.60;;
66429;SDS011;53242;51.694;10.006;2023-03-01T06:51:39;13.48;;;4.22;;
66429;SDS011;53242;51.694;10.006;2023-03-01T06:54:03;12.45;;;4.25;;
66429;SDS011;53242;51.694;10.006;2023-03-01T06:56:26;12.75;;;5.20;;
66429;SDS011;53242;51.694;10.006;2023-03-01T06:58:49;13.07;;;4.82;;
66429;SDS011;53242;51.694;10.006;2023-03-01T07:01:11;11.50;;;4.40;;
66429;SDS011;53242;51.694;10.006;2023-03-01T07:03:33;13.63;;;4.63;;
66429;SDS011;53242;51.694;10.006;2023-03-01T07:05:56;16.70;;;5.05;;
66429;SDS011;53242;51.694;10.006;2023-03-01T07:08:18;13.25;;;4.55;;
66429;SDS011;53242;51.694;10.006;2023-03-01T07:10:41;14.95;;;5.03;;
66429;SDS011;53242;51.694;10.006;2023-03-01T07:13:03;11.50;;;4.55;;
66429;SDS011;53242;51.694;10.006;2023-03-01T07:17:50;12.50;;;4.70;;
66429;SDS011;53242;51.694;10.006;2023-03-01T07:20:13;16.33;;;5.15;;
66429;SDS011;53242;51.694;10.006;2023-03-01T07:22:35;13.50;;;5.03;;
66429;SDS011;53242;51.694;10.006;2023-03-01T07:24:58;14.82;;;6.10;;
66429;SDS011;53242;51.694;10.006;2023-03-01T07:27:20;13.23;;;5.25;;
66429;SDS011;53242;51.694;10.006;2023-03-01T07:29:43;11.48;;;4.75;;
66429;SDS011;53242;51.694;10.006;2023-03-01T07:32:06;15.88;;;5.28;;
66429;SDS011;53242;51.694;10.006;2023-03-01T07:34:29;12.50;;;4.72;;
66429;SDS011;53242;51.694;10.006;2023-03-01T07:36:51;14.10;;;5.05;;
66429;SDS011;53242;51.694;10.006;2023-03-01T07:39:14;14.27;;;4.90;;
66429;SDS011;53242;51.694;10.006;2023-03-01T07:41:36;15.15;;;4.55;;
66429;SDS011;53242;51.694;10.006;2023-03-01T07:43:59;13.25;;;4.55;;
66429;SDS011;53242;51.694;10.006;2023-03-01T07:46:21;13.32;;;4.97;;
66429;SDS011;53242;51.694;10.006;2023-03-01T07:48:44;11.93;;;4.40;;
66429;SDS011;53242;51.694;10.006;2023-03-01T07:51:06;12.23;;;4.70;;
66429;SDS011;53242;51.694;10.006;2023-03-01T07:53:29;12.00;;;4.25;;
66429;SDS011;53242;51.694;10.006;2023-03-01T07:56:09;13.25;;;4.72;;
66429;SDS011;53242;51.694;10.006;2023-03-01T07:58:34;15.63;;;5.63;;
66429;SDS011;53242;51.694;10.006;2023-03-01T08:01:00;14.10;;;4.90;;
66429;SDS011;53242;51.694;10.006;2023-03-01T08:03:24;14.93;;;6.03;;
66429;SDS011;53242;51.694;10.006;2023-03-01T08:05:46;17.27;;;5.18;;
66429;SDS011;53242;51.694;10.006;2023-03-01T08:08:10;16.83;;;5.40;;
66429;SDS011;53242;51.694;10.006;2023-03-01T08:10:32;14.20;;;5.68;;
66429;SDS011;53242;51.694;10.006;2023-03-01T08:12:55;16.08;;;6.28;;
66429;SDS011;53242;51.694;10.006;2023-03-01T08:15:17;15.02;;;5.75;;
66429;SDS011;53242;51.694;10.006;2023-03-01T08:17:40;12.35;;;5.25;;
66429;SDS011;53242;51.694;10.006;2023-03-01T08:20:03;13.32;;;5.65;;
66429;SDS011;53242;51.694;10.006;2023-03-01T08:22:28;11.85;;;4.22;;
66429;SDS011;53242;51.694;10.006;2023-03-01T08:24:50;13.93;;;4.95;;
66429;SDS011;53242;51.694;10.006;2023-03-01T08:27:14;18.65;;;6.40;;
66429;SDS011;53242;51.694;10.006;2023-03-01T08:29:37;12.93;;;5.47;;
66429;SDS011;53242;51.694;10.006;2023-03-01T08:31:59;15.43;;;4.90;;
66429;SDS011;53242;51.694;10.006;2023-03-01T08:34:22;14.20;;;5.47;;
66429;SDS011;53242;51.694;10.006;2023-03-01T08:36:45;17.20;;;5.78;;
66429;SDS011;53242;51.694;10.006;2023-03-01T08:39:09;15.57;;;5.57;;
66429;SDS011;53242;51.694;10.006;2023-03-01T08:41:33;16.70;;;5.60;;
66429;SDS011;53242;51.694;10.006;2023-03-01T08:43:56;15.32;;;5.93;;
66429;SDS011;53242;51.694;10.006;2023-03-01T08:46:20;18.92;;;6.45;;
66429;SDS011;53242;51.694;10.006;2023-03-01T08:48:43;16.88;;;7.00;;
66429;SDS011;53242;51.694;10.006;2023-03-01T08:51:15;15.23;;;5.65;;
66429;SDS011;53242;51.694;10.006;2023-03-01T08:53:39;19.02;;;6.55;;
66429;SDS011;53242;51.694;10.006;2023-03-01T08:56:02;16.70;;;5.78;;
66429;SDS011;53242;51.694;10.006;2023-03-01T08:58:25;15.57;;;6.22;;
66429;SDS011;53242;51.694;10.006;2023-03-01T09:00:47;14.90;;;5.88;;
66429;SDS011;53242;51.694;10.006;2023-03-01T09:03:09;17.35;;;6.18;;
66429;SDS011;53242;51.694;10.006;2023-03-01T09:05:32;19.67;;;7.10;;
66429;SDS011;53242;51.694;10.006;2023-03-01T09:07:57;17.80;;;6.45;;
66429;SDS011;53242;51.694;10.006;2023-03-01T09:10:19;13.27;;;5.30;;
66429;SDS011;53242;51.694;10.006;2023-03-01T09:12:41;15.05;;;5.88;;
66429;SDS011;53242;51.694;10.006;2023-03-01T09:15:04;15.55;;;6.07;;
66429;SDS011;53242;51.694;10.006;2023-03-01T09:17:27;14.68;;;5.35;;
66429;SDS011;53242;51.694;10.006;2023-03-01T09:19:49;15.82;;;5.80;;
66429;SDS011;53242;51.694;10.006;2023-03-01T09:22:11;15.35;;;5.47;;
66429;SDS011;53242;51.694;10.006;2023-03-01T09:24:34;17.42;;;6.30;;
66429;SDS011;53242;51.694;10.006;2023-03-01T09:26:56;14.10;;;5.50;;
66429;SDS011;53242;51.694;10.006;2023-03-01T09:29:19;16.70;;;5.00;;
66429;SDS011;53242;51.694;10.006;2023-03-01T09:31:41;14.65;;;5.68;;
66429;SDS011;53242;51.694;10.006;2023-03-01T09:34:04;18.48;;;6.65;;
66429;SDS011;53242;51.694;10.006;2023-03-01T09:36:26;14.32;;;5.70;;
66429;SDS011;53242;51.694;10.006;2023-03-01T09:38:49;16.45;;;5.95;;
66429;SDS011;53242;51.694;10.006;2023-03-01T09:43:51;18.63;;;5.65;;
66429;SDS011;53242;51.694;10.006;2023-03-01T09:46:20;15.27;;;5.50;;
66429;SDS011;53242;51.694;10.006;2023-03-01T09:51:19;14.85;;;5.18;;
66429;SDS011;53242;51.694;10.006;2023-03-01T09:53:48;17.65;;;5.85;;
66429;SDS011;53242;51.694;10.006;2023-03-01T09:56:56;14.60;;;5.07;;
66429;SDS011;53242;51.694;10.006;2023-03-01T09:59:16;17.55;;;5.85;;
66429;SDS011;53242;51.694;10.006;2023-03-01T10:07:38;12.10;;;4.40;;
66429;SDS011;53242;51.694;10.006;2023-03-01T10:10:14;10.43;;;3.88;;
66429;SDS011;53242;51.694;10.006;2023-03-01T10:12:45;9.73;;;3.10;;
66429;SDS011;53242;51.694;10.006;2023-03-01T10:15:12;6.50;;;3.10;;
66429;SDS011;53242;51.694;10.006;2023-03-01T10:22:46;8.40;;;3.40;;
66429;SDS011;53242;51.694;10.006;2023-03-01T10:25:12;8.95;;;2.88;;
66429;SDS011;53242;51.694;10.006;2023-03-01T10:27:49;4.22;;;2.10;;
66429;SDS011;53242;51.694;10.006;2023-03-01T10:30:17;7.32;;;2.92;;
66429;SDS011;53242;51.694;10.006;2023-03-01T10:32:43;9.90;;;3.35;;
66429;SDS011;53242;51.694;10.006;2023-03-01T10:35:19;7.68;;;2.45;;
66429;SDS011;53242;51.694;10.006;2023-03-01T10:38:03;12.60;;;3.92;;
66429;SDS011;53242;51.694;10.006;2023-03-01T10:40:27;9.77;;;3.38;;
66429;SDS011;53242;51.694;10.006;2023-03-01T10:42:49;10.35;;;3.33;;
66429;SDS011;53242;51.694;10.006;2023-03-01T10:47:41;8.40;;;2.55;;
66429;SDS011;53242;51.694;10.006;2023-03-01T10:50:04;8.20;;;2.95;;
66429;SDS011;53242;51.694;10.006;2023-03-01T10:52:35;7.93;;;3.50;;
66429;SDS011;53242;51.694;10.006;2023-03-01T10:55:01;10.02;;;3.53;;
66429;SDS011;53242;51.694;10.006;2023-03-01T10:57:34;8.82;;;2.75;;
66429;SDS011;53242;51.694;10.006;2023-03-01T11:02:35;15.63;;;4.00;;
66429;SDS011;53242;51.694;10.006;2023-03-01T11:04:59;9.68;;;2.75;;
66429;SDS011;53242;51.694;10.006;2023-03-01T11:07:24;10.57;;;4.10;;
66429;SDS011;53242;51.694;10.006;2023-03-01T11:09:46;11.77;;;4.10;;
66429;SDS011;53242;51.694;10.006;2023-03-01T11:12:15;11.27;;;3.67;;
66429;SDS011;53242;51.694;10.006;2023-03-01T11:14:39;11.48;;;4.13;;
66429;SDS011;53242;51.694;10.006;2023-03-01T11:17:17;8.98;;;3.13;;
66429;SDS011;53242;51.694;10.006;2023-03-01T11:19:59;11.00;;;4.15;;
66429;SDS011;53242;51.694;10.006;2023-03-01T11:22:27;11.60;;;3.70;;
66429;SDS011;53242;51.694;10.006;2023-03-01T11:24:50;11.95;;;3.53;;
66429;SDS011;53242;51.694;10.006;2023-03-01T11:27:19;10.13;;;3.65;;
66429;SDS011;53242;51.694;10.006;2023-03-01T11:29:46;7.78;;;3.15;;
66429;SDS011;53242;51.694;10.006;2023-03-01T11:32:14;13.70;;;3.97;;
66429;SDS011;53242;51.694;10.006;2023-03-01T11:34:39;9.35;;;3.65;;
66429;SDS011;53242;51.694;10.006;2023-03-01T11:37:10;8.13;;;2.80;;
66429;SDS011;53242;51.694;10.006;2023-03-01T11:39:46;10.13;;;3.50;;
66429;SDS011;53242;51.694;10.006;2023-03-01T11:42:20;8.55;;;2.90;;
66429;SDS011;53242;51.694;10.006;2023-03-01T11:44:54;13.00;;;4.35;;
66429;SDS011;53242;51.694;10.006;2023-03-01T11:47:33;11.57;;;3.70;;
66429;SDS011;53242;51.694;10.006;2023-03-01T11:50:20;8.95;;;3.80;;
66429;SDS011;53242;51.694;10.006;2023-03-01T11:58:37;10.55;;;3.85;;
66429;SDS011;53242;51.694;10.006;2023-03-01T12:01:38;12.38;;;3.90;;
66429;SDS011;53242;51.694;10.006;2023-03-01T12:06:50;11.75;;;4.20;;
66429;SDS011;53242;51.694;10.006;2023-03-01T12:09:36;8.90;;;2.88;;
66429;SDS011;53242;51.694;10.006;2023-03-01T12:22:32;11.05;;;3.55;;
66429;SDS011;53242;51.694;10.006;2023-03-01T12:27:32;7.60;;;3.07;;
66429;SDS011;53242;51.694;10.006;2023-03-01T12:30:24;10.73;;;4.05;;
66429;SDS011;53242;51.694;10.006;2023-03-01T12:33:18;12.63;;;3.95;;
66429;SDS011;53242;51.694;10.006;2023-03-01T12:36:09;11.32;;;4.47;;
66429;SDS011;53242;51.694;10.006;2023-03-01T12:38:46;10.77;;;4.28;;
66429;SDS011;53242;51.694;10.006;2023-03-01T12:44:21;13.20;;;4.57;;
66429;SDS011;53242;51.694;10.006;2023-03-01T12:49:44;14.20;;;5.05;;
66429;SDS011;53242;51.694;10.006;2023-03-01T12:52:16;12.15;;;4.22;;
66429;SDS011;53242;51.694;10.006;2023-03-01T12:54:44;13.75;;;4.72;;
66429;SDS011;53242;51.694;10.006;2023-03-01T12:57:17;12.70;;;4.70;;
66429;SDS011;53242;51.694;10.006;2023-03-01T12:59:55;12.32;;;5.22;;
66429;SDS011;53242;51.694;10.006;2023-03-01T13:02:31;10.98;;;4.38;;
66429;SDS011;53242;51.694;10.006;2023-03-01T13:07:53;10.35;;;3.90;;
66429;SDS011;53242;51.694;10.006;2023-03-01T13:10:26;10.93;;;3.95;;
66429;SDS011;53242;51.694;10.006;2023-03-01T13:13:02;11.23;;;4.30;;
66429;SDS011;53242;51.694;10.006;2023-03-01T13:15:33;8.43;;;3.38;;
66429;SDS011;53242;51.694;10.006;2023-03-01T13:31:05;16.15;;;5.10;;
66429;SDS011;53242;51.694;10.006;2023-03-01T13:35:58;12.15;;;4.45;;
66429;SDS011;53242;51.694;10.006;2023-03-01T13:38:36;11.45;;;5.07;;
66429;SDS011;53242;51.694;10.006;2023-03-01T13:41:03;12.52;;;4.20;;
66429;SDS011;53242;51.694;10.006;2023-03-01T13:43:28;10.80;;;4.10;;
66429;SDS011;53242;51.694;10.006;2023-03-01T13:45:51;13.30;;;4.63;;
66429;SDS011;53242;51.694;10.006;2023-03-01T13:48:18;12.50;;;4.72;;
66429;SDS011;53242;51.694;10.006;2023-03-01T13:50:50;12.05;;;4.25;;
66429;SDS011;53242;51.694;10.006;2023-03-01T13:53:20;12.18;;;4.57;;
66429;SDS011;53242;51.694;10.006;2023-03-01T13:55:55;10.27;;;4.47;;
66429;SDS011;53242;51.694;10.006;2023-03-01T13:58:25;14.73;;;4.03;;
66429;SDS011;53242;51.694;10.006;2023-03-01T14:00:57;13.38;;;4.40;;
66429;SDS011;53242;51.694;10.006;2023-03-01T14:03:24;15.95;;;4.57;;
66429;SDS011;53242;51.694;10.006;2023-03-01T14:06:00;11.25;;;3.95;;
66429;SDS011;53242;51.694;10.006;2023-03-01T14:08:30;12.23;;;4.03;;
66429;SDS011;53242;51.694;10.006;2023-03-01T14:10:54;12.63;;;3.85;;
66429;SDS011;53242;51.694;10.006;2023-03-01T14:13:42;10.15;;;3.80;;
66429;SDS011;53242;51.694;10.006;2023-03-01T14:21:34;10.07;;;3.70;;
66429;SDS011;53242;51.694;10.006;2023-03-01T14:23:58;10.73;;;4.40;;
66429;SDS011;53242;51.694;10.006;2023-03-01T14:26:21;11.65;;;4.38;;
66429;SDS011;53242;51.694;10.006;2023-03-01T14:28:44;12.32;;;3.70;;
66429;SDS011;53242;51.694;10.006;2023-03-01T14:31:29;11.15;;;4.35;;
66429;SDS011;53242;51.694;10.006;2023-03-01T14:33:56;12.15;;;3.75;;
66429;SDS011;53242;51.694;10.006;2023-03-01T14:36:25;12.38;;;5.10;;
66429;SDS011;53242;51.694;10.006;2023-03-01T14:38:48;9.70;;;3.67;;
66429;SDS011;53242;51.694;10.006;2023-03-01T14:41:12;10.38;;;4.10;;
66429;SDS011;53242;51.694;10.006;2023-03-01T14:43:41;11.02;;;3.65;;
66429;SDS011;53242;51.694;10.006;2023-03-01T14:46:15;9.70;;;2.90;;
66429;SDS011;53242;51.694;10.006;2023-03-01T14:48:40;8.73;;;3.40;;
66429;SDS011;53242;51.694;10.006;2023-03-01T14:51:04;8.88;;;3.10;;
66429;SDS011;53242;51.694;10.006;2023-03-01T14:53:28;10.25;;;3.65;;
66429;SDS011;53242;51.694;10.006;2023-03-01T14:55:52;7.72;;;3.28;;
66429;SDS011;53242;51.694;10.006;2023-03-01T14:58:20;11.55;;;4.60;;
66429;SDS011;53242;51.694;10.006;2023-03-01T15:00:59;9.00;;;3.15;;
66429;SDS011;53242;51.694;10.006;2023-03-01T15:03:30;9.77;;;3.20;;
66429;SDS011;53242;51.694;10.006;2023-03-01T15:05:56;7.28;;;2.80;;
66429;SDS011;53242;51.694;10.006;2023-03-01T15:08:20;12.45;;;4.32;;
66429;SDS011;53242;51.694;10.006;2023-03-01T15:10:56;8.23;;;3.45;;
66429;SDS011;53242;51.694;10.006;2023-03-01T15:13:23;8.35;;;2.42;;
66429;SDS011;53242;51.694;10.006;2023-03-01T15:15:47;9.10;;;3.10;;
66429;SDS011;53242;51.694;10.006;2023-03-01T15:20:39;9.88;;;3.08;;
66429;SDS011;53242;51.694;10.006;2023-03-01T15:23:02;8.50;;;2.92;;
66429;SDS011;53242;51.694;10.006;2023-03-01T15:25:26;6.82;;;2.50;;
66429;SDS011;53242;51.694;10.006;2023-03-01T15:27:50;7.00;;;2.33;;
66429;SDS011;53242;51.694;10.006;2023-03-01T15:30:19;6.82;;;2.30;;
66429;SDS011;53242;51.694;10.006;2023-03-01T15:32:44;8.85;;;2.70;;
66429;SDS011;53242;51.694;10.006;2023-03-01T15:40:28;7.20;;;2.40;;
66429;SDS011;53242;51.694;10.006;2023-03-01T15:42:55;7.13;;;2.78;;
66429;SDS011;53242;51.694;10.006;2023-03-01T15:45:24;6.32;;;2.42;;
66429;SDS011;53242;51.694;10.006;2023-03-01T15:47:50;6.95;;;2.45;;